<?xml version="1.0" encoding="UTF-8" standalone="no" ?>
<gpx xmlns="http://www.topografix.com/GPX/1/1" xmlns:xsi="http://www.w3.org/2001/XMLSchema-instance" xsi:schemaLocation="http://www.topografix.com/GPX/1/1 http://www.topografix.com/GPX/1/1/gpx.xsd" version="1.1" creator="VisuGPX - https://www.visugpx.com">
  <metadata>
    <name>Lamalou by Cousinhube34</name>
    <desc><![CDATA[Lamalou pour les durs]]></desc>
  </metadata>
  <trk>
    <name><![CDATA[Lamalou-Cours]]></name>
    <trkseg>
      <trkpt lat="43.59021" lon="3.08394">
        <ele>182.286072</ele>
        <time>2012-03-05T12:42:54Z</time>
      </trkpt>
      <trkpt lat="43.58981" lon="3.08315">
        <ele>189.688705</ele>
        <time>2012-03-05T12:44:42Z</time>
      </trkpt>
      <trkpt lat="43.59002" lon="3.08306">
        <ele>190.057495</ele>
        <time>2012-03-05T12:44:52Z</time>
      </trkpt>
      <trkpt lat="43.59019" lon="3.08303">
        <ele>189.182495</ele>
        <time>2012-03-05T12:44:58Z</time>
      </trkpt>
      <trkpt lat="43.59056" lon="3.08297">
        <ele>187.752975</ele>
        <time>2012-03-05T12:45:09Z</time>
      </trkpt>
      <trkpt lat="43.5918" lon="3.0828">
        <ele>187.650925</ele>
        <time>2012-03-05T12:45:48Z</time>
      </trkpt>
      <trkpt lat="43.59229" lon="3.08229">
        <ele>191.750092</ele>
        <time>2012-03-05T12:46:04Z</time>
      </trkpt>
      <trkpt lat="43.59253" lon="3.08216">
        <ele>191.116257</ele>
        <time>2012-03-05T12:46:10Z</time>
      </trkpt>
      <trkpt lat="43.59539" lon="3.08224">
        <ele>192.132507</ele>
        <time>2012-03-05T12:47:17Z</time>
      </trkpt>
      <trkpt lat="43.596" lon="3.08151">
        <ele>194.813751</ele>
        <time>2012-03-05T12:47:39Z</time>
      </trkpt>
      <trkpt lat="43.59651" lon="3.08064">
        <ele>199.342255</ele>
        <time>2012-03-05T12:48:02Z</time>
      </trkpt>
      <trkpt lat="43.59674" lon="3.08026">
        <ele>200.494934</ele>
        <time>2012-03-05T12:48:13Z</time>
      </trkpt>
      <trkpt lat="43.59709" lon="3.0798">
        <ele>198.754349</ele>
        <time>2012-03-05T12:48:27Z</time>
      </trkpt>
      <trkpt lat="43.59776" lon="3.07985">
        <ele>201.565506</ele>
        <time>2012-03-05T12:48:45Z</time>
      </trkpt>
      <trkpt lat="43.59799" lon="3.07862">
        <ele>206.500244</ele>
        <time>2012-03-05T12:49:18Z</time>
      </trkpt>
      <trkpt lat="43.59851" lon="3.07805">
        <ele>218.103546</ele>
        <time>2012-03-05T12:49:48Z</time>
      </trkpt>
      <trkpt lat="43.59825" lon="3.0782">
        <ele>213.730804</ele>
        <time>2012-03-05T12:49:59Z</time>
      </trkpt>
      <trkpt lat="43.59815" lon="3.07819">
        <ele>212.820435</ele>
        <time>2012-03-05T12:50:04Z</time>
      </trkpt>
      <trkpt lat="43.59853" lon="3.07749">
        <ele>225.427505</ele>
        <time>2012-03-05T12:50:35Z</time>
      </trkpt>
      <trkpt lat="43.59856" lon="3.0772">
        <ele>229.065552</ele>
        <time>2012-03-05T12:50:49Z</time>
      </trkpt>
      <trkpt lat="43.59838" lon="3.07681">
        <ele>230.236282</ele>
        <time>2012-03-05T12:51:09Z</time>
      </trkpt>
      <trkpt lat="43.59866" lon="3.07664">
        <ele>236.330536</ele>
        <time>2012-03-05T12:51:28Z</time>
      </trkpt>
      <trkpt lat="43.59873" lon="3.076">
        <ele>243.631882</ele>
        <time>2012-03-05T12:52:00Z</time>
      </trkpt>
      <trkpt lat="43.59896" lon="3.07569">
        <ele>251.187286</ele>
        <time>2012-03-05T12:52:24Z</time>
      </trkpt>
      <trkpt lat="43.59906" lon="3.07571">
        <ele>252.221802</ele>
        <time>2012-03-05T12:52:31Z</time>
      </trkpt>
      <trkpt lat="43.59917" lon="3.07545">
        <ele>256.705261</ele>
        <time>2012-03-05T12:52:46Z</time>
      </trkpt>
      <trkpt lat="43.59926" lon="3.07419">
        <ele>268.366089</ele>
        <time>2012-03-05T12:53:47Z</time>
      </trkpt>
      <trkpt lat="43.59943" lon="3.07388">
        <ele>274.952026</ele>
        <time>2012-03-05T12:54:05Z</time>
      </trkpt>
      <trkpt lat="43.59957" lon="3.07369">
        <ele>279.698151</ele>
        <time>2012-03-05T12:54:17Z</time>
      </trkpt>
      <trkpt lat="43.59993" lon="3.07307">
        <ele>286.472565</ele>
        <time>2012-03-05T12:54:49Z</time>
      </trkpt>
      <trkpt lat="43.60056" lon="3.07248">
        <ele>293.776245</ele>
        <time>2012-03-05T12:55:32Z</time>
      </trkpt>
      <trkpt lat="43.60095" lon="3.07192">
        <ele>297.802002</ele>
        <time>2012-03-05T12:56:03Z</time>
      </trkpt>
      <trkpt lat="43.60112" lon="3.07162">
        <ele>301.902222</ele>
        <time>2012-03-05T12:56:19Z</time>
      </trkpt>
      <trkpt lat="43.6012" lon="3.07129">
        <ele>305.871704</ele>
        <time>2012-03-05T12:56:36Z</time>
      </trkpt>
      <trkpt lat="43.60121" lon="3.0712">
        <ele>306.604218</ele>
        <time>2012-03-05T12:56:47Z</time>
      </trkpt>
      <trkpt lat="43.60174" lon="3.06961">
        <ele>323.563751</ele>
        <time>2012-03-05T12:58:07Z</time>
      </trkpt>
      <trkpt lat="43.60211" lon="3.06879">
        <ele>321.918762</ele>
        <time>2012-03-05T12:58:41Z</time>
      </trkpt>
      <trkpt lat="43.60209" lon="3.06817">
        <ele>328.159302</ele>
        <time>2012-03-05T12:59:00Z</time>
      </trkpt>
      <trkpt lat="43.6024" lon="3.06771">
        <ele>334.401672</ele>
        <time>2012-03-05T12:59:19Z</time>
      </trkpt>
      <trkpt lat="43.60267" lon="3.06757">
        <ele>333.930206</ele>
        <time>2012-03-05T12:59:31Z</time>
      </trkpt>
      <trkpt lat="43.60328" lon="3.06735">
        <ele>338.005859</ele>
        <time>2012-03-05T12:59:59Z</time>
      </trkpt>
      <trkpt lat="43.60375" lon="3.06668">
        <ele>357.686554</ele>
        <time>2012-03-05T13:01:03Z</time>
      </trkpt>
      <trkpt lat="43.60409" lon="3.06714">
        <ele>356.404541</ele>
        <time>2012-03-05T13:01:28Z</time>
      </trkpt>
      <trkpt lat="43.60439" lon="3.06723">
        <ele>357.739105</ele>
        <time>2012-03-05T13:01:43Z</time>
      </trkpt>
      <trkpt lat="43.60458" lon="3.06711">
        <ele>357.479065</ele>
        <time>2012-03-05T13:01:50Z</time>
      </trkpt>
      <trkpt lat="43.60469" lon="3.06678">
        <ele>359.067505</ele>
        <time>2012-03-05T13:02:01Z</time>
      </trkpt>
      <trkpt lat="43.60487" lon="3.06675">
        <ele>355.951263</ele>
        <time>2012-03-05T13:02:12Z</time>
      </trkpt>
      <trkpt lat="43.60522" lon="3.06667">
        <ele>349.41687</ele>
        <time>2012-03-05T13:02:20Z</time>
      </trkpt>
      <trkpt lat="43.60535" lon="3.06623">
        <ele>351.815735</ele>
        <time>2012-03-05T13:02:30Z</time>
      </trkpt>
      <trkpt lat="43.60542" lon="3.06603">
        <ele>355.06546</ele>
        <time>2012-03-05T13:02:36Z</time>
      </trkpt>
      <trkpt lat="43.6056" lon="3.06581">
        <ele>360.167328</ele>
        <time>2012-03-05T13:02:47Z</time>
      </trkpt>
      <trkpt lat="43.60647" lon="3.0672">
        <ele>353.350006</ele>
        <time>2012-03-05T13:03:44Z</time>
      </trkpt>
      <trkpt lat="43.60699" lon="3.06704">
        <ele>379.322601</ele>
        <time>2012-03-05T13:05:35Z</time>
      </trkpt>
      <trkpt lat="43.60717" lon="3.06759">
        <ele>371.132507</ele>
        <time>2012-03-05T13:06:12Z</time>
      </trkpt>
      <trkpt lat="43.60775" lon="3.06752">
        <ele>390.673584</ele>
        <time>2012-03-05T13:08:17Z</time>
      </trkpt>
      <trkpt lat="43.60795" lon="3.06752">
        <ele>392.458801</ele>
        <time>2012-03-05T13:08:26Z</time>
      </trkpt>
      <trkpt lat="43.6081" lon="3.06722">
        <ele>400.940155</ele>
        <time>2012-03-05T13:08:38Z</time>
      </trkpt>
      <trkpt lat="43.60852" lon="3.0671">
        <ele>403.404694</ele>
        <time>2012-03-05T13:08:51Z</time>
      </trkpt>
      <trkpt lat="43.60876" lon="3.06727">
        <ele>399.081146</ele>
        <time>2012-03-05T13:09:03Z</time>
      </trkpt>
      <trkpt lat="43.60892" lon="3.06738">
        <ele>395.978577</ele>
        <time>2012-03-05T13:09:08Z</time>
      </trkpt>
      <trkpt lat="43.60909" lon="3.06754">
        <ele>388.357849</ele>
        <time>2012-03-05T13:09:13Z</time>
      </trkpt>
      <trkpt lat="43.60924" lon="3.06772">
        <ele>379.430634</ele>
        <time>2012-03-05T13:09:17Z</time>
      </trkpt>
      <trkpt lat="43.60971" lon="3.06744">
        <ele>384.679413</ele>
        <time>2012-03-05T13:09:32Z</time>
      </trkpt>
      <trkpt lat="43.60985" lon="3.06784">
        <ele>368.422882</ele>
        <time>2012-03-05T13:09:46Z</time>
      </trkpt>
      <trkpt lat="43.61024" lon="3.06809">
        <ele>368.842621</ele>
        <time>2012-03-05T13:10:15Z</time>
      </trkpt>
      <trkpt lat="43.61012" lon="3.06821">
        <ele>360.813171</ele>
        <time>2012-03-05T13:10:29Z</time>
      </trkpt>
      <trkpt lat="43.61062" lon="3.06856">
        <ele>352.189026</ele>
        <time>2012-03-05T13:10:47Z</time>
      </trkpt>
      <trkpt lat="43.61105" lon="3.06873">
        <ele>353.494537</ele>
        <time>2012-03-05T13:11:01Z</time>
      </trkpt>
      <trkpt lat="43.61113" lon="3.06932">
        <ele>340.233734</ele>
        <time>2012-03-05T13:11:20Z</time>
      </trkpt>
      <trkpt lat="43.61135" lon="3.06955">
        <ele>337.59613</ele>
        <time>2012-03-05T13:11:35Z</time>
      </trkpt>
      <trkpt lat="43.61168" lon="3.06966">
        <ele>336.734528</ele>
        <time>2012-03-05T13:11:42Z</time>
      </trkpt>
      <trkpt lat="43.612" lon="3.06967">
        <ele>332.533691</ele>
        <time>2012-03-05T13:11:49Z</time>
      </trkpt>
      <trkpt lat="43.61231" lon="3.06966">
        <ele>326.708282</ele>
        <time>2012-03-05T13:11:57Z</time>
      </trkpt>
      <trkpt lat="43.61268" lon="3.06965">
        <ele>322.348114</ele>
        <time>2012-03-05T13:12:05Z</time>
      </trkpt>
      <trkpt lat="43.61285" lon="3.06992">
        <ele>313.132202</ele>
        <time>2012-03-05T13:12:13Z</time>
      </trkpt>
      <trkpt lat="43.61328" lon="3.07035">
        <ele>297.097839</ele>
        <time>2012-03-05T13:12:27Z</time>
      </trkpt>
      <trkpt lat="43.61381" lon="3.07027">
        <ele>291.119263</ele>
        <time>2012-03-05T13:12:38Z</time>
      </trkpt>
      <trkpt lat="43.61429" lon="3.07008">
        <ele>286.754242</ele>
        <time>2012-03-05T13:12:48Z</time>
      </trkpt>
      <trkpt lat="43.61529" lon="3.07088">
        <ele>269.1698</ele>
        <time>2012-03-05T13:13:56Z</time>
      </trkpt>
      <trkpt lat="43.61535" lon="3.07106">
        <ele>262.119629</ele>
        <time>2012-03-05T13:14:02Z</time>
      </trkpt>
      <trkpt lat="43.61575" lon="3.07098">
        <ele>267.402039</ele>
        <time>2012-03-05T13:14:21Z</time>
      </trkpt>
      <trkpt lat="43.61612" lon="3.07099">
        <ele>266.686249</ele>
        <time>2012-03-05T13:14:39Z</time>
      </trkpt>
      <trkpt lat="43.61653" lon="3.07091">
        <ele>265.946625</ele>
        <time>2012-03-05T13:14:54Z</time>
      </trkpt>
      <trkpt lat="43.6172" lon="3.07038">
        <ele>273.144989</ele>
        <time>2012-03-05T13:15:25Z</time>
      </trkpt>
      <trkpt lat="43.61735" lon="3.0703">
        <ele>272.637512</ele>
        <time>2012-03-05T13:15:31Z</time>
      </trkpt>
      <trkpt lat="43.61776" lon="3.06999">
        <ele>270.422882</ele>
        <time>2012-03-05T13:15:48Z</time>
      </trkpt>
      <trkpt lat="43.61794" lon="3.06954">
        <ele>275.584839</ele>
        <time>2012-03-05T13:16:01Z</time>
      </trkpt>
      <trkpt lat="43.61819" lon="3.06908">
        <ele>271.658356</ele>
        <time>2012-03-05T13:16:16Z</time>
      </trkpt>
      <trkpt lat="43.61819" lon="3.06814">
        <ele>283.993011</ele>
        <time>2012-03-05T13:16:40Z</time>
      </trkpt>
      <trkpt lat="43.61823" lon="3.06793">
        <ele>287.97525</ele>
        <time>2012-03-05T13:16:46Z</time>
      </trkpt>
      <trkpt lat="43.61831" lon="3.06785">
        <ele>287.458618</ele>
        <time>2012-03-05T13:16:50Z</time>
      </trkpt>
      <trkpt lat="43.61876" lon="3.06764">
        <ele>283.249573</ele>
        <time>2012-03-05T13:17:02Z</time>
      </trkpt>
      <trkpt lat="43.61944" lon="3.06646">
        <ele>288.843079</ele>
        <time>2012-03-05T13:17:36Z</time>
      </trkpt>
      <trkpt lat="43.61954" lon="3.06531">
        <ele>297.892639</ele>
        <time>2012-03-05T13:18:12Z</time>
      </trkpt>
      <trkpt lat="43.61946" lon="3.06456">
        <ele>306.641846</ele>
        <time>2012-03-05T13:18:37Z</time>
      </trkpt>
      <trkpt lat="43.61925" lon="3.06337">
        <ele>318.51004</ele>
        <time>2012-03-05T13:19:18Z</time>
      </trkpt>
      <trkpt lat="43.61911" lon="3.06261">
        <ele>323.129761</ele>
        <time>2012-03-05T13:19:48Z</time>
      </trkpt>
      <trkpt lat="43.61868" lon="3.0619">
        <ele>338.066254</ele>
        <time>2012-03-05T13:20:25Z</time>
      </trkpt>
      <trkpt lat="43.61851" lon="3.06158">
        <ele>341.887512</ele>
        <time>2012-03-05T13:20:43Z</time>
      </trkpt>
      <trkpt lat="43.61831" lon="3.06097">
        <ele>344.600006</ele>
        <time>2012-03-05T13:21:07Z</time>
      </trkpt>
      <trkpt lat="43.61826" lon="3.06066">
        <ele>340.484802</ele>
        <time>2012-03-05T13:21:19Z</time>
      </trkpt>
      <trkpt lat="43.61816" lon="3.06049">
        <ele>339.917542</ele>
        <time>2012-03-05T13:21:25Z</time>
      </trkpt>
      <trkpt lat="43.61761" lon="3.06038">
        <ele>354.644531</ele>
        <time>2012-03-05T13:21:47Z</time>
      </trkpt>
      <trkpt lat="43.61703" lon="3.0603">
        <ele>367.928925</ele>
        <time>2012-03-05T13:22:14Z</time>
      </trkpt>
      <trkpt lat="43.61705" lon="3.06038">
        <ele>370.126373</ele>
        <time>2012-03-05T13:22:18Z</time>
      </trkpt>
      <trkpt lat="43.61745" lon="3.06058">
        <ele>366.959991</ele>
        <time>2012-03-05T13:22:37Z</time>
      </trkpt>
      <trkpt lat="43.61775" lon="3.06082">
        <ele>365.32312</ele>
        <time>2012-03-05T13:22:53Z</time>
      </trkpt>
      <trkpt lat="43.61763" lon="3.06086">
        <ele>371.244141</ele>
        <time>2012-03-05T13:23:03Z</time>
      </trkpt>
      <trkpt lat="43.61664" lon="3.06057">
        <ele>390.736603</ele>
        <time>2012-03-05T13:23:53Z</time>
      </trkpt>
      <trkpt lat="43.61632" lon="3.0588">
        <ele>385.647949</ele>
        <time>2012-03-05T13:24:55Z</time>
      </trkpt>
      <trkpt lat="43.61623" lon="3.05889">
        <ele>391.866882</ele>
        <time>2012-03-05T13:25:02Z</time>
      </trkpt>
      <trkpt lat="43.61629" lon="3.05916">
        <ele>391.736694</ele>
        <time>2012-03-05T13:25:12Z</time>
      </trkpt>
      <trkpt lat="43.6163" lon="3.05961">
        <ele>394.085663</ele>
        <time>2012-03-05T13:25:27Z</time>
      </trkpt>
      <trkpt lat="43.61626" lon="3.06004">
        <ele>396.735168</ele>
        <time>2012-03-05T13:25:40Z</time>
      </trkpt>
      <trkpt lat="43.61612" lon="3.06053">
        <ele>408.520752</ele>
        <time>2012-03-05T13:25:57Z</time>
      </trkpt>
      <trkpt lat="43.61629" lon="3.06098">
        <ele>412.119995</ele>
        <time>2012-03-05T13:26:12Z</time>
      </trkpt>
      <trkpt lat="43.61637" lon="3.06114">
        <ele>415.165009</ele>
        <time>2012-03-05T13:26:17Z</time>
      </trkpt>
      <trkpt lat="43.61671" lon="3.06143">
        <ele>415.394989</ele>
        <time>2012-03-05T13:26:34Z</time>
      </trkpt>
      <trkpt lat="43.61667" lon="3.06148">
        <ele>418.092499</ele>
        <time>2012-03-05T13:26:38Z</time>
      </trkpt>
      <trkpt lat="43.61626" lon="3.06133">
        <ele>424.654999</ele>
        <time>2012-03-05T13:26:59Z</time>
      </trkpt>
      <trkpt lat="43.61604" lon="3.0611">
        <ele>424.771881</ele>
        <time>2012-03-05T13:27:13Z</time>
      </trkpt>
      <trkpt lat="43.61579" lon="3.06049">
        <ele>426.413605</ele>
        <time>2012-03-05T13:27:38Z</time>
      </trkpt>
      <trkpt lat="43.61555" lon="3.0594">
        <ele>434.081848</ele>
        <time>2012-03-05T13:28:20Z</time>
      </trkpt>
      <trkpt lat="43.61551" lon="3.05925">
        <ele>434.609375</ele>
        <time>2012-03-05T13:28:26Z</time>
      </trkpt>
      <trkpt lat="43.61546" lon="3.05911">
        <ele>435.781311</ele>
        <time>2012-03-05T13:28:32Z</time>
      </trkpt>
      <trkpt lat="43.61539" lon="3.05889">
        <ele>436.812439</ele>
        <time>2012-03-05T13:28:40Z</time>
      </trkpt>
      <trkpt lat="43.61525" lon="3.05842">
        <ele>436.378235</ele>
        <time>2012-03-05T13:28:57Z</time>
      </trkpt>
      <trkpt lat="43.61514" lon="3.05812">
        <ele>437.086792</ele>
        <time>2012-03-05T13:29:09Z</time>
      </trkpt>
      <trkpt lat="43.61518" lon="3.05886">
        <ele>447.145599</ele>
        <time>2012-03-05T13:29:41Z</time>
      </trkpt>
      <trkpt lat="43.61521" lon="3.05915">
        <ele>450.003082</ele>
        <time>2012-03-05T13:29:51Z</time>
      </trkpt>
      <trkpt lat="43.61544" lon="3.06164">
        <ele>461.563446</ele>
        <time>2012-03-05T13:31:10Z</time>
      </trkpt>
      <trkpt lat="43.6156" lon="3.06212">
        <ele>466.053192</ele>
        <time>2012-03-05T13:31:27Z</time>
      </trkpt>
      <trkpt lat="43.61579" lon="3.06261">
        <ele>465.457489</ele>
        <time>2012-03-05T13:31:44Z</time>
      </trkpt>
      <trkpt lat="43.61576" lon="3.06292">
        <ele>465.752747</ele>
        <time>2012-03-05T13:31:54Z</time>
      </trkpt>
      <trkpt lat="43.61549" lon="3.0631">
        <ele>469.370667</ele>
        <time>2012-03-05T13:32:08Z</time>
      </trkpt>
      <trkpt lat="43.61522" lon="3.06311">
        <ele>474.259308</ele>
        <time>2012-03-05T13:32:20Z</time>
      </trkpt>
      <trkpt lat="43.61465" lon="3.06319">
        <ele>481.558746</ele>
        <time>2012-03-05T13:32:46Z</time>
      </trkpt>
      <trkpt lat="43.61214" lon="3.06402">
        <ele>502.970001</ele>
        <time>2012-03-05T13:34:37Z</time>
      </trkpt>
      <trkpt lat="43.61157" lon="3.06408">
        <ele>503.912323</ele>
        <time>2012-03-05T13:35:00Z</time>
      </trkpt>
      <trkpt lat="43.61142" lon="3.06402">
        <ele>504.964447</ele>
        <time>2012-03-05T13:35:06Z</time>
      </trkpt>
      <trkpt lat="43.61135" lon="3.06371">
        <ele>509.218201</ele>
        <time>2012-03-05T13:35:16Z</time>
      </trkpt>
      <trkpt lat="43.6113" lon="3.06343">
        <ele>511.985474</ele>
        <time>2012-03-05T13:35:25Z</time>
      </trkpt>
      <trkpt lat="43.61126" lon="3.06329">
        <ele>513.003662</ele>
        <time>2012-03-05T13:35:30Z</time>
      </trkpt>
      <trkpt lat="43.61122" lon="3.06184">
        <ele>528.633484</ele>
        <time>2012-03-05T13:36:15Z</time>
      </trkpt>
      <trkpt lat="43.61066" lon="3.06208">
        <ele>524.330017</ele>
        <time>2012-03-05T13:36:41Z</time>
      </trkpt>
      <trkpt lat="43.61" lon="3.06195">
        <ele>528.307495</ele>
        <time>2012-03-05T13:37:07Z</time>
      </trkpt>
      <trkpt lat="43.60934" lon="3.06143">
        <ele>538.094849</ele>
        <time>2012-03-05T13:37:40Z</time>
      </trkpt>
      <trkpt lat="43.60887" lon="3.0612">
        <ele>539.891846</ele>
        <time>2012-03-05T13:38:02Z</time>
      </trkpt>
      <trkpt lat="43.60885" lon="3.06086">
        <ele>542.991333</ele>
        <time>2012-03-05T13:38:14Z</time>
      </trkpt>
      <trkpt lat="43.60897" lon="3.06053">
        <ele>544.808044</ele>
        <time>2012-03-05T13:38:26Z</time>
      </trkpt>
      <trkpt lat="43.60885" lon="3.05999">
        <ele>545.182983</ele>
        <time>2012-03-05T13:38:40Z</time>
      </trkpt>
      <trkpt lat="43.60881" lon="3.05961">
        <ele>544.999451</ele>
        <time>2012-03-05T13:38:47Z</time>
      </trkpt>
      <trkpt lat="43.60895" lon="3.05927">
        <ele>545.910156</ele>
        <time>2012-03-05T13:39:01Z</time>
      </trkpt>
      <trkpt lat="43.6088" lon="3.05966">
        <ele>544.878601</ele>
        <time>2012-03-05T13:39:39Z</time>
      </trkpt>
      <trkpt lat="43.60915" lon="3.05859">
        <ele>547.807617</ele>
        <time>2012-03-05T13:40:05Z</time>
      </trkpt>
      <trkpt lat="43.60907" lon="3.0578">
        <ele>548.481506</ele>
        <time>2012-03-05T13:40:20Z</time>
      </trkpt>
      <trkpt lat="43.60923" lon="3.05695">
        <ele>551.296265</ele>
        <time>2012-03-05T13:40:39Z</time>
      </trkpt>
      <trkpt lat="43.60924" lon="3.05676">
        <ele>551.316711</ele>
        <time>2012-03-05T13:40:44Z</time>
      </trkpt>
      <trkpt lat="43.60986" lon="3.05604">
        <ele>559.224915</ele>
        <time>2012-03-05T13:41:09Z</time>
      </trkpt>
      <trkpt lat="43.61004" lon="3.05568">
        <ele>560.786987</ele>
        <time>2012-03-05T13:41:17Z</time>
      </trkpt>
      <trkpt lat="43.61107" lon="3.05335">
        <ele>568.048828</ele>
        <time>2012-03-05T13:42:18Z</time>
      </trkpt>
      <trkpt lat="43.61123" lon="3.0529">
        <ele>572.090515</ele>
        <time>2012-03-05T13:42:34Z</time>
      </trkpt>
      <trkpt lat="43.61162" lon="3.05229">
        <ele>577.653076</ele>
        <time>2012-03-05T13:43:00Z</time>
      </trkpt>
      <trkpt lat="43.61145" lon="3.05116">
        <ele>583.072693</ele>
        <time>2012-03-05T13:43:33Z</time>
      </trkpt>
      <trkpt lat="43.61134" lon="3.05092">
        <ele>585.150085</ele>
        <time>2012-03-05T13:43:43Z</time>
      </trkpt>
      <trkpt lat="43.61077" lon="3.05033">
        <ele>592.097717</ele>
        <time>2012-03-05T13:44:15Z</time>
      </trkpt>
      <trkpt lat="43.61071" lon="3.05002">
        <ele>597.026733</ele>
        <time>2012-03-05T13:44:29Z</time>
      </trkpt>
      <trkpt lat="43.61146" lon="3.04966">
        <ele>601.66864</ele>
        <time>2012-03-05T13:45:17Z</time>
      </trkpt>
      <trkpt lat="43.6113" lon="3.04943">
        <ele>607.948364</ele>
        <time>2012-03-05T13:45:27Z</time>
      </trkpt>
      <trkpt lat="43.61104" lon="3.04929">
        <ele>610.505981</ele>
        <time>2012-03-05T13:45:38Z</time>
      </trkpt>
      <trkpt lat="43.61087" lon="3.049">
        <ele>615.86676</ele>
        <time>2012-03-05T13:45:51Z</time>
      </trkpt>
      <trkpt lat="43.61079" lon="3.04887">
        <ele>617.604675</ele>
        <time>2012-03-05T13:45:57Z</time>
      </trkpt>
      <trkpt lat="43.61042" lon="3.04828">
        <ele>624.989258</ele>
        <time>2012-03-05T13:46:27Z</time>
      </trkpt>
      <trkpt lat="43.61084" lon="3.04816">
        <ele>634.558411</ele>
        <time>2012-03-05T13:46:56Z</time>
      </trkpt>
      <trkpt lat="43.61129" lon="3.04828">
        <ele>633.427185</ele>
        <time>2012-03-05T13:47:18Z</time>
      </trkpt>
      <trkpt lat="43.6117" lon="3.04804">
        <ele>635.94574</ele>
        <time>2012-03-05T13:47:42Z</time>
      </trkpt>
      <trkpt lat="43.61128" lon="3.04794">
        <ele>641.687073</ele>
        <time>2012-03-05T13:48:08Z</time>
      </trkpt>
      <trkpt lat="43.61113" lon="3.04769">
        <ele>647.959595</ele>
        <time>2012-03-05T13:48:21Z</time>
      </trkpt>
      <trkpt lat="43.61085" lon="3.04752">
        <ele>652.404114</ele>
        <time>2012-03-05T13:48:40Z</time>
      </trkpt>
      <trkpt lat="43.61074" lon="3.04744">
        <ele>653.417969</ele>
        <time>2012-03-05T13:48:47Z</time>
      </trkpt>
      <trkpt lat="43.61021" lon="3.04724">
        <ele>652.193604</ele>
        <time>2012-03-05T13:49:13Z</time>
      </trkpt>
      <trkpt lat="43.60986" lon="3.04689">
        <ele>654.776367</ele>
        <time>2012-03-05T13:49:33Z</time>
      </trkpt>
      <trkpt lat="43.60975" lon="3.04677">
        <ele>654.802856</ele>
        <time>2012-03-05T13:49:40Z</time>
      </trkpt>
      <trkpt lat="43.60965" lon="3.04656">
        <ele>657.484009</ele>
        <time>2012-03-05T13:49:51Z</time>
      </trkpt>
      <trkpt lat="43.60926" lon="3.04546">
        <ele>667.303833</ele>
        <time>2012-03-05T13:50:35Z</time>
      </trkpt>
      <trkpt lat="43.60899" lon="3.04468">
        <ele>665.602478</ele>
        <time>2012-03-05T13:50:56Z</time>
      </trkpt>
      <trkpt lat="43.60903" lon="3.04398">
        <ele>668.389587</ele>
        <time>2012-03-05T13:51:14Z</time>
      </trkpt>
      <trkpt lat="43.60931" lon="3.04344">
        <ele>673.8927</ele>
        <time>2012-03-05T13:51:31Z</time>
      </trkpt>
      <trkpt lat="43.60952" lon="3.04326">
        <ele>676.174927</ele>
        <time>2012-03-05T13:51:40Z</time>
      </trkpt>
      <trkpt lat="43.61032" lon="3.04249">
        <ele>673.730774</ele>
        <time>2012-03-05T13:52:11Z</time>
      </trkpt>
      <trkpt lat="43.61018" lon="3.04226">
        <ele>668.956421</ele>
        <time>2012-03-05T13:52:23Z</time>
      </trkpt>
      <trkpt lat="43.60994" lon="3.0421">
        <ele>664.811707</ele>
        <time>2012-03-05T13:52:31Z</time>
      </trkpt>
      <trkpt lat="43.60963" lon="3.04185">
        <ele>660.943909</ele>
        <time>2012-03-05T13:52:38Z</time>
      </trkpt>
      <trkpt lat="43.60913" lon="3.04164">
        <ele>655.94751</ele>
        <time>2012-03-05T13:52:51Z</time>
      </trkpt>
      <trkpt lat="43.60907" lon="3.04137">
        <ele>649.637939</ele>
        <time>2012-03-05T13:53:02Z</time>
      </trkpt>
      <trkpt lat="43.60865" lon="3.04119">
        <ele>643.3396</ele>
        <time>2012-03-05T13:53:12Z</time>
      </trkpt>
      <trkpt lat="43.6085" lon="3.04114">
        <ele>640.134705</ele>
        <time>2012-03-05T13:53:17Z</time>
      </trkpt>
      <trkpt lat="43.6084" lon="3.04092">
        <ele>633.745911</ele>
        <time>2012-03-05T13:53:26Z</time>
      </trkpt>
      <trkpt lat="43.60827" lon="3.04086">
        <ele>630.141235</ele>
        <time>2012-03-05T13:53:33Z</time>
      </trkpt>
      <trkpt lat="43.6081" lon="3.04052">
        <ele>618.537903</ele>
        <time>2012-03-05T13:54:28Z</time>
      </trkpt>
      <trkpt lat="43.6086" lon="3.04019">
        <ele>628.225647</ele>
        <time>2012-03-05T13:55:18Z</time>
      </trkpt>
      <trkpt lat="43.60792" lon="3.0395">
        <ele>626.443298</ele>
        <time>2012-03-05T13:55:46Z</time>
      </trkpt>
      <trkpt lat="43.60652" lon="3.03919">
        <ele>623.626892</ele>
        <time>2012-03-05T13:56:36Z</time>
      </trkpt>
      <trkpt lat="43.60658" lon="3.03903">
        <ele>629.307495</ele>
        <time>2012-03-05T13:56:45Z</time>
      </trkpt>
      <trkpt lat="43.60693" lon="3.03898">
        <ele>636.002197</ele>
        <time>2012-03-05T13:57:03Z</time>
      </trkpt>
      <trkpt lat="43.60738" lon="3.0388">
        <ele>643.640015</ele>
        <time>2012-03-05T13:57:27Z</time>
      </trkpt>
      <trkpt lat="43.60773" lon="3.03873">
        <ele>646.0625</ele>
        <time>2012-03-05T13:57:43Z</time>
      </trkpt>
      <trkpt lat="43.6081" lon="3.03861">
        <ele>651.278259</ele>
        <time>2012-03-05T13:57:56Z</time>
      </trkpt>
      <trkpt lat="43.6088" lon="3.03864">
        <ele>661.141968</ele>
        <time>2012-03-05T13:58:42Z</time>
      </trkpt>
      <trkpt lat="43.60858" lon="3.03824">
        <ele>669.152771</ele>
        <time>2012-03-05T13:59:09Z</time>
      </trkpt>
      <trkpt lat="43.60741" lon="3.03748">
        <ele>681.342529</ele>
        <time>2012-03-05T14:00:27Z</time>
      </trkpt>
      <trkpt lat="43.60799" lon="3.03719">
        <ele>690.674988</ele>
        <time>2012-03-05T14:01:07Z</time>
      </trkpt>
      <trkpt lat="43.60843" lon="3.03702">
        <ele>697.195007</ele>
        <time>2012-03-05T14:01:31Z</time>
      </trkpt>
      <trkpt lat="43.60841" lon="3.03697">
        <ele>697.88501</ele>
        <time>2012-03-05T14:01:35Z</time>
      </trkpt>
      <trkpt lat="43.60732" lon="3.03642">
        <ele>704.587524</ele>
        <time>2012-03-05T14:02:33Z</time>
      </trkpt>
      <trkpt lat="43.60705" lon="3.03609">
        <ele>707.837524</ele>
        <time>2012-03-05T14:02:51Z</time>
      </trkpt>
      <trkpt lat="43.60734" lon="3.03607">
        <ele>711.607483</ele>
        <time>2012-03-05T14:03:06Z</time>
      </trkpt>
      <trkpt lat="43.60761" lon="3.03603">
        <ele>713.757935</ele>
        <time>2012-03-05T14:03:20Z</time>
      </trkpt>
      <trkpt lat="43.60889" lon="3.03579">
        <ele>723.447083</ele>
        <time>2012-03-05T14:04:27Z</time>
      </trkpt>
      <trkpt lat="43.60762" lon="3.03492">
        <ele>735.702698</ele>
        <time>2012-03-05T14:05:26Z</time>
      </trkpt>
      <trkpt lat="43.60763" lon="3.034">
        <ele>747.418823</ele>
        <time>2012-03-05T14:06:06Z</time>
      </trkpt>
      <trkpt lat="43.60772" lon="3.03383">
        <ele>749.833923</ele>
        <time>2012-03-05T14:06:18Z</time>
      </trkpt>
      <trkpt lat="43.60784" lon="3.03358">
        <ele>753.190002</ele>
        <time>2012-03-05T14:06:35Z</time>
      </trkpt>
      <trkpt lat="43.60824" lon="3.03268">
        <ele>763.473572</ele>
        <time>2012-03-05T14:07:25Z</time>
      </trkpt>
      <trkpt lat="43.60808" lon="3.03183">
        <ele>771.868774</ele>
        <time>2012-03-05T14:08:03Z</time>
      </trkpt>
      <trkpt lat="43.60802" lon="3.03169">
        <ele>773.075012</ele>
        <time>2012-03-05T14:08:10Z</time>
      </trkpt>
      <trkpt lat="43.60772" lon="3.03114">
        <ele>775.901733</ele>
        <time>2012-03-05T14:08:37Z</time>
      </trkpt>
      <trkpt lat="43.60763" lon="3.03102">
        <ele>776.078552</ele>
        <time>2012-03-05T14:08:45Z</time>
      </trkpt>
      <trkpt lat="43.60761" lon="3.03111">
        <ele>775.496277</ele>
        <time>2012-03-05T14:13:14Z</time>
      </trkpt>
      <trkpt lat="43.60762" lon="3.03108">
        <ele>775.719482</ele>
        <time>2012-03-05T14:13:19Z</time>
      </trkpt>
      <trkpt lat="43.60742" lon="3.03109">
        <ele>774.420776</ele>
        <time>2012-03-05T14:13:30Z</time>
      </trkpt>
      <trkpt lat="43.60734" lon="3.03121">
        <ele>771.754028</ele>
        <time>2012-03-05T14:13:35Z</time>
      </trkpt>
      <trkpt lat="43.60736" lon="3.03163">
        <ele>766.75946</ele>
        <time>2012-03-05T14:13:45Z</time>
      </trkpt>
      <trkpt lat="43.60725" lon="3.03226">
        <ele>754.742126</ele>
        <time>2012-03-05T14:14:01Z</time>
      </trkpt>
      <trkpt lat="43.60737" lon="3.03323">
        <ele>747.579224</ele>
        <time>2012-03-05T14:14:34Z</time>
      </trkpt>
      <trkpt lat="43.60712" lon="3.03388">
        <ele>736.253601</ele>
        <time>2012-03-05T14:14:53Z</time>
      </trkpt>
      <trkpt lat="43.60721" lon="3.03427">
        <ele>737.400574</ele>
        <time>2012-03-05T14:15:02Z</time>
      </trkpt>
      <trkpt lat="43.60705" lon="3.03488">
        <ele>725.494141</ele>
        <time>2012-03-05T14:15:26Z</time>
      </trkpt>
      <trkpt lat="43.60703" lon="3.03549">
        <ele>716.643433</ele>
        <time>2012-03-05T14:15:42Z</time>
      </trkpt>
      <trkpt lat="43.60645" lon="3.03605">
        <ele>693.767639</ele>
        <time>2012-03-05T14:16:16Z</time>
      </trkpt>
      <trkpt lat="43.60556" lon="3.03654">
        <ele>649.582275</ele>
        <time>2012-03-05T14:17:13Z</time>
      </trkpt>
      <trkpt lat="43.60542" lon="3.03651">
        <ele>643.1203</ele>
        <time>2012-03-05T14:17:22Z</time>
      </trkpt>
      <trkpt lat="43.6052" lon="3.03664">
        <ele>631.809875</ele>
        <time>2012-03-05T14:17:38Z</time>
      </trkpt>
      <trkpt lat="43.60385" lon="3.03774">
        <ele>567.50415</ele>
        <time>2012-03-05T14:39:57Z</time>
      </trkpt>
      <trkpt lat="43.60389" lon="3.03789">
        <ele>566.407593</ele>
        <time>2012-03-05T14:39:59Z</time>
      </trkpt>
      <trkpt lat="43.6041" lon="3.03822">
        <ele>563.843628</ele>
        <time>2012-03-05T14:40:04Z</time>
      </trkpt>
      <trkpt lat="43.60434" lon="3.03853">
        <ele>564.569336</ele>
        <time>2012-03-05T14:40:09Z</time>
      </trkpt>
      <trkpt lat="43.60429" lon="3.03891">
        <ele>552.690063</ele>
        <time>2012-03-05T14:40:14Z</time>
      </trkpt>
      <trkpt lat="43.60443" lon="3.03928">
        <ele>548.590637</ele>
        <time>2012-03-05T14:40:19Z</time>
      </trkpt>
      <trkpt lat="43.60513" lon="3.04015">
        <ele>556.440735</ele>
        <time>2012-03-05T14:40:33Z</time>
      </trkpt>
      <trkpt lat="43.60515" lon="3.04035">
        <ele>553.55426</ele>
        <time>2012-03-05T14:40:37Z</time>
      </trkpt>
      <trkpt lat="43.60363" lon="3.04064">
        <ele>551.61438</ele>
        <time>2012-03-05T14:41:10Z</time>
      </trkpt>
      <trkpt lat="43.60334" lon="3.04058">
        <ele>547.845215</ele>
        <time>2012-03-05T14:41:15Z</time>
      </trkpt>
      <trkpt lat="43.60293" lon="3.04058">
        <ele>544.029541</ele>
        <time>2012-03-05T14:41:20Z</time>
      </trkpt>
      <trkpt lat="43.60137" lon="3.04135">
        <ele>545.023499</ele>
        <time>2012-03-05T14:41:45Z</time>
      </trkpt>
      <trkpt lat="43.60115" lon="3.04153">
        <ele>544.767639</ele>
        <time>2012-03-05T14:41:50Z</time>
      </trkpt>
      <trkpt lat="43.60049" lon="3.0421">
        <ele>539.574829</ele>
        <time>2012-03-05T14:42:01Z</time>
      </trkpt>
      <trkpt lat="43.60019" lon="3.0425">
        <ele>534.044434</ele>
        <time>2012-03-05T14:42:06Z</time>
      </trkpt>
      <trkpt lat="43.6" lon="3.0429">
        <ele>529.35376</ele>
        <time>2012-03-05T14:42:12Z</time>
      </trkpt>
      <trkpt lat="43.59974" lon="3.04287">
        <ele>523.096252</ele>
        <time>2012-03-05T14:42:18Z</time>
      </trkpt>
      <trkpt lat="43.59964" lon="3.04311">
        <ele>517.460449</ele>
        <time>2012-03-05T14:42:25Z</time>
      </trkpt>
      <trkpt lat="43.59926" lon="3.04288">
        <ele>512.60498</ele>
        <time>2012-03-05T14:42:35Z</time>
      </trkpt>
      <trkpt lat="43.59962" lon="3.04347">
        <ele>510.581421</ele>
        <time>2012-03-05T14:42:52Z</time>
      </trkpt>
      <trkpt lat="43.6004" lon="3.0438">
        <ele>515.85553</ele>
        <time>2012-03-05T14:43:39Z</time>
      </trkpt>
      <trkpt lat="43.60095" lon="3.04411">
        <ele>517.017334</ele>
        <time>2012-03-05T14:44:36Z</time>
      </trkpt>
      <trkpt lat="43.60162" lon="3.04413">
        <ele>527.092957</ele>
        <time>2012-03-05T14:45:03Z</time>
      </trkpt>
      <trkpt lat="43.60195" lon="3.04424">
        <ele>528.577026</ele>
        <time>2012-03-05T14:45:19Z</time>
      </trkpt>
      <trkpt lat="43.60224" lon="3.04442">
        <ele>529.215637</ele>
        <time>2012-03-05T14:45:31Z</time>
      </trkpt>
      <trkpt lat="43.60278" lon="3.04572">
        <ele>515.30249</ele>
        <time>2012-03-05T14:46:02Z</time>
      </trkpt>
      <trkpt lat="43.60299" lon="3.04629">
        <ele>506.975189</ele>
        <time>2012-03-05T14:46:18Z</time>
      </trkpt>
      <trkpt lat="43.60283" lon="3.04624">
        <ele>505.382843</ele>
        <time>2012-03-05T14:46:28Z</time>
      </trkpt>
      <trkpt lat="43.60272" lon="3.04628">
        <ele>501.651184</ele>
        <time>2012-03-05T14:46:32Z</time>
      </trkpt>
      <trkpt lat="43.60263" lon="3.0464">
        <ele>496.710114</ele>
        <time>2012-03-05T14:46:36Z</time>
      </trkpt>
      <trkpt lat="43.60252" lon="3.04664">
        <ele>489.262512</ele>
        <time>2012-03-05T14:46:49Z</time>
      </trkpt>
      <trkpt lat="43.60264" lon="3.0469">
        <ele>488.557495</ele>
        <time>2012-03-05T14:46:55Z</time>
      </trkpt>
      <trkpt lat="43.60304" lon="3.04713">
        <ele>491.85141</ele>
        <time>2012-03-05T14:47:03Z</time>
      </trkpt>
      <trkpt lat="43.60284" lon="3.04739">
        <ele>482.891876</ele>
        <time>2012-03-05T14:47:16Z</time>
      </trkpt>
      <trkpt lat="43.60361" lon="3.04809">
        <ele>473.84024</ele>
        <time>2012-03-05T14:47:52Z</time>
      </trkpt>
      <trkpt lat="43.60405" lon="3.04849">
        <ele>462.782806</ele>
        <time>2012-03-05T14:48:13Z</time>
      </trkpt>
      <trkpt lat="43.60446" lon="3.04903">
        <ele>450.007782</ele>
        <time>2012-03-05T14:48:34Z</time>
      </trkpt>
      <trkpt lat="43.60463" lon="3.04946">
        <ele>440.284332</ele>
        <time>2012-03-05T14:48:45Z</time>
      </trkpt>
      <trkpt lat="43.60501" lon="3.0499">
        <ele>445.964813</ele>
        <time>2012-03-05T14:49:11Z</time>
      </trkpt>
      <trkpt lat="43.60398" lon="3.05052">
        <ele>443.756836</ele>
        <time>2012-03-05T14:50:05Z</time>
      </trkpt>
      <trkpt lat="43.60383" lon="3.05072">
        <ele>448.077332</ele>
        <time>2012-03-05T14:50:12Z</time>
      </trkpt>
      <trkpt lat="43.60167" lon="3.05092">
        <ele>443.025513</ele>
        <time>2012-03-05T14:51:25Z</time>
      </trkpt>
      <trkpt lat="43.60156" lon="3.0509">
        <ele>442.524353</ele>
        <time>2012-03-05T14:51:33Z</time>
      </trkpt>
      <trkpt lat="43.60151" lon="3.0509">
        <ele>442.718872</ele>
        <time>2012-03-05T14:51:42Z</time>
      </trkpt>
      <trkpt lat="43.60101" lon="3.05101">
        <ele>447.529785</ele>
        <time>2012-03-05T14:52:17Z</time>
      </trkpt>
      <trkpt lat="43.60075" lon="3.05112">
        <ele>448.472992</ele>
        <time>2012-03-05T14:52:31Z</time>
      </trkpt>
      <trkpt lat="43.60051" lon="3.05114">
        <ele>446.378204</ele>
        <time>2012-03-05T14:52:42Z</time>
      </trkpt>
      <trkpt lat="43.60027" lon="3.05134">
        <ele>450.211304</ele>
        <time>2012-03-05T14:52:54Z</time>
      </trkpt>
      <trkpt lat="43.5996" lon="3.05164">
        <ele>446.931854</ele>
        <time>2012-03-05T14:53:17Z</time>
      </trkpt>
      <trkpt lat="43.59917" lon="3.05189">
        <ele>446.080292</ele>
        <time>2012-03-05T14:53:26Z</time>
      </trkpt>
      <trkpt lat="43.59892" lon="3.05251">
        <ele>446.412506</ele>
        <time>2012-03-05T14:53:45Z</time>
      </trkpt>
      <trkpt lat="43.59902" lon="3.05284">
        <ele>445.029022</ele>
        <time>2012-03-05T14:53:51Z</time>
      </trkpt>
      <trkpt lat="43.59936" lon="3.05321">
        <ele>447.230957</ele>
        <time>2012-03-05T14:54:01Z</time>
      </trkpt>
      <trkpt lat="43.59924" lon="3.05384">
        <ele>449.353424</ele>
        <time>2012-03-05T14:54:14Z</time>
      </trkpt>
      <trkpt lat="43.59903" lon="3.05462">
        <ele>448.538086</ele>
        <time>2012-03-05T14:54:29Z</time>
      </trkpt>
      <trkpt lat="43.59889" lon="3.05439">
        <ele>445.71</ele>
        <time>2010-02-27T15:30:09Z</time>
      </trkpt>
      <trkpt lat="43.59886" lon="3.05452">
        <ele>444.75</ele>
        <time>2010-02-27T15:30:17Z</time>
      </trkpt>
      <trkpt lat="43.59877" lon="3.05445">
        <ele>441.38</ele>
        <time>2010-02-27T15:30:29Z</time>
      </trkpt>
      <trkpt lat="43.59875" lon="3.05459">
        <ele>440.42</ele>
        <time>2010-02-27T15:31:15Z</time>
      </trkpt>
      <trkpt lat="43.59865" lon="3.05482">
        <ele>438.5</ele>
        <time>2010-02-27T15:31:24Z</time>
      </trkpt>
      <trkpt lat="43.59857" lon="3.05478">
        <ele>436.58</ele>
        <time>2010-02-27T15:31:28Z</time>
      </trkpt>
      <trkpt lat="43.59775" lon="3.05519">
        <ele>426.48</ele>
        <time>2010-02-27T15:32:36Z</time>
      </trkpt>
      <trkpt lat="43.59734" lon="3.05559">
        <ele>414.47</ele>
        <time>2010-02-27T15:32:59Z</time>
      </trkpt>
      <trkpt lat="43.59705" lon="3.05557">
        <ele>405.33</ele>
        <time>2010-02-27T15:33:51Z</time>
      </trkpt>
      <trkpt lat="43.59704" lon="3.05562">
        <ele>403.89</ele>
        <time>2010-02-27T15:36:39Z</time>
      </trkpt>
      <trkpt lat="43.59697" lon="3.05541">
        <ele>399.08</ele>
        <time>2010-02-27T15:37:42Z</time>
      </trkpt>
      <trkpt lat="43.59689" lon="3.05509">
        <ele>390.91</ele>
        <time>2010-02-27T15:37:50Z</time>
      </trkpt>
      <trkpt lat="43.59678" lon="3.05485">
        <ele>388.03</ele>
        <time>2010-02-27T15:37:54Z</time>
      </trkpt>
      <trkpt lat="43.59662" lon="3.0549">
        <ele>388.51</ele>
        <time>2010-02-27T15:38:00Z</time>
      </trkpt>
      <trkpt lat="43.59645" lon="3.05513">
        <ele>382.74</ele>
        <time>2010-02-27T15:38:05Z</time>
      </trkpt>
      <trkpt lat="43.59633" lon="3.05535">
        <ele>381.3</ele>
        <time>2010-02-27T15:38:08Z</time>
      </trkpt>
      <trkpt lat="43.59614" lon="3.05575">
        <ele>376.01</ele>
        <time>2010-02-27T15:38:13Z</time>
      </trkpt>
      <trkpt lat="43.59603" lon="3.05622">
        <ele>365.44</ele>
        <time>2010-02-27T15:38:22Z</time>
      </trkpt>
      <trkpt lat="43.59585" lon="3.05622">
        <ele>365.92</ele>
        <time>2010-02-27T15:38:26Z</time>
      </trkpt>
      <trkpt lat="43.59523" lon="3.05645">
        <ele>345.25</ele>
        <time>2010-02-27T15:38:40Z</time>
      </trkpt>
      <trkpt lat="43.59433" lon="3.05663">
        <ele>339</ele>
        <time>2010-02-27T15:39:02Z</time>
      </trkpt>
      <trkpt lat="43.59407" lon="3.05679">
        <ele>332.27</ele>
        <time>2010-02-27T15:39:08Z</time>
      </trkpt>
      <trkpt lat="43.59358" lon="3.05663">
        <ele>332.75</ele>
        <time>2010-02-27T15:39:20Z</time>
      </trkpt>
      <trkpt lat="43.5931" lon="3.05666">
        <ele>328.43</ele>
        <time>2010-02-27T15:39:29Z</time>
      </trkpt>
      <trkpt lat="43.5929" lon="3.0566">
        <ele>319.3</ele>
        <time>2010-02-27T15:39:33Z</time>
      </trkpt>
      <trkpt lat="43.59225" lon="3.05615">
        <ele>313.53</ele>
        <time>2010-02-27T15:39:48Z</time>
      </trkpt>
      <trkpt lat="43.59204" lon="3.05595">
        <ele>315.93</ele>
        <time>2010-02-27T15:39:58Z</time>
      </trkpt>
      <trkpt lat="43.5916" lon="3.05602">
        <ele>306.32</ele>
        <time>2010-02-27T15:40:11Z</time>
      </trkpt>
      <trkpt lat="43.59145" lon="3.05598">
        <ele>301.99</ele>
        <time>2010-02-27T15:40:15Z</time>
      </trkpt>
      <trkpt lat="43.59137" lon="3.05602">
        <ele>297.18</ele>
        <time>2010-02-27T15:40:17Z</time>
      </trkpt>
      <trkpt lat="43.59132" lon="3.05603">
        <ele>297.18</ele>
        <time>2010-02-27T15:40:18Z</time>
      </trkpt>
      <trkpt lat="43.59117" lon="3.05605">
        <ele>288.05</ele>
        <time>2010-02-27T15:40:22Z</time>
      </trkpt>
      <trkpt lat="43.59098" lon="3.05603">
        <ele>282.28</ele>
        <time>2010-02-27T15:40:27Z</time>
      </trkpt>
      <trkpt lat="43.59052" lon="3.05566">
        <ele>277.96</ele>
        <time>2010-02-27T15:40:37Z</time>
      </trkpt>
      <trkpt lat="43.59024" lon="3.05529">
        <ele>277</ele>
        <time>2010-02-27T15:40:45Z</time>
      </trkpt>
      <trkpt lat="43.58994" lon="3.05551">
        <ele>275.07</ele>
        <time>2010-02-27T15:40:53Z</time>
      </trkpt>
      <trkpt lat="43.58937" lon="3.05565">
        <ele>271.71</ele>
        <time>2010-02-27T15:41:03Z</time>
      </trkpt>
      <trkpt lat="43.58914" lon="3.05562">
        <ele>266.9</ele>
        <time>2010-02-27T15:41:07Z</time>
      </trkpt>
      <trkpt lat="43.58863" lon="3.05572">
        <ele>258.25</ele>
        <time>2010-02-27T15:45:31Z</time>
      </trkpt>
      <trkpt lat="43.58855" lon="3.05604">
        <ele>252</ele>
        <time>2010-02-27T15:46:00Z</time>
      </trkpt>
      <trkpt lat="43.5884" lon="3.05621">
        <ele>244.79</ele>
        <time>2010-02-27T15:46:06Z</time>
      </trkpt>
      <trkpt lat="43.58846" lon="3.05637">
        <ele>239.99</ele>
        <time>2010-02-27T15:46:10Z</time>
      </trkpt>
      <trkpt lat="43.58856" lon="3.05659">
        <ele>239.02</ele>
        <time>2010-02-27T15:46:23Z</time>
      </trkpt>
      <trkpt lat="43.58824" lon="3.05709">
        <ele>245.27</ele>
        <time>2010-02-27T15:47:31Z</time>
      </trkpt>
      <trkpt lat="43.58749" lon="3.05709">
        <ele>259.21</ele>
        <time>2010-02-27T15:48:50Z</time>
      </trkpt>
      <trkpt lat="43.58722" lon="3.05716">
        <ele>263.06</ele>
        <time>2010-02-27T15:49:12Z</time>
      </trkpt>
      <trkpt lat="43.58717" lon="3.05715">
        <ele>261.62</ele>
        <time>2010-02-27T15:49:41Z</time>
      </trkpt>
      <trkpt lat="43.58705" lon="3.05712">
        <ele>259.21</ele>
        <time>2010-02-27T15:49:46Z</time>
      </trkpt>
      <trkpt lat="43.58546" lon="3.05624">
        <ele>260.17</ele>
        <time>2010-02-27T15:50:52Z</time>
      </trkpt>
      <trkpt lat="43.58497" lon="3.05621">
        <ele>255.37</ele>
        <time>2010-02-27T15:52:39Z</time>
      </trkpt>
      <trkpt lat="43.58497" lon="3.05622">
        <ele>254.41</ele>
        <time>2010-02-27T15:53:13Z</time>
      </trkpt>
      <trkpt lat="43.58527" lon="3.05896">
        <ele>248.16</ele>
        <time>2010-02-27T15:54:07Z</time>
      </trkpt>
      <trkpt lat="43.58518" lon="3.05921">
        <ele>246.72</ele>
        <time>2010-02-27T15:54:12Z</time>
      </trkpt>
      <trkpt lat="43.58493" lon="3.05941">
        <ele>246.23</ele>
        <time>2010-02-27T15:54:21Z</time>
      </trkpt>
      <trkpt lat="43.58544" lon="3.06011">
        <ele>257.29</ele>
        <time>2010-02-27T15:54:46Z</time>
      </trkpt>
      <trkpt lat="43.58603" lon="3.06047">
        <ele>256.81</ele>
        <time>2010-02-27T15:55:12Z</time>
      </trkpt>
      <trkpt lat="43.58574" lon="3.06111">
        <ele>256.81</ele>
        <time>2010-02-27T15:55:29Z</time>
      </trkpt>
      <trkpt lat="43.5857" lon="3.06187">
        <ele>258.25</ele>
        <time>2010-02-27T15:55:47Z</time>
      </trkpt>
      <trkpt lat="43.58581" lon="3.06293">
        <ele>260.17</ele>
        <time>2010-02-27T15:56:13Z</time>
      </trkpt>
      <trkpt lat="43.58594" lon="3.06321">
        <ele>260.17</ele>
        <time>2010-02-27T15:56:21Z</time>
      </trkpt>
      <trkpt lat="43.5863" lon="3.06342">
        <ele>262.1</ele>
        <time>2010-02-27T15:56:35Z</time>
      </trkpt>
      <trkpt lat="43.58714" lon="3.06332">
        <ele>266.42</ele>
        <time>2010-02-27T15:57:05Z</time>
      </trkpt>
      <trkpt lat="43.58784" lon="3.06348">
        <ele>269.79</ele>
        <time>2010-02-27T15:57:30Z</time>
      </trkpt>
      <trkpt lat="43.58848" lon="3.06295">
        <ele>274.59</ele>
        <time>2010-02-27T15:58:03Z</time>
      </trkpt>
      <trkpt lat="43.58859" lon="3.06382">
        <ele>277</ele>
        <time>2010-02-27T15:58:29Z</time>
      </trkpt>
      <trkpt lat="43.58896" lon="3.06402">
        <ele>278.44</ele>
        <time>2010-02-27T15:58:44Z</time>
      </trkpt>
      <trkpt lat="43.58917" lon="3.06439">
        <ele>280.36</ele>
        <time>2010-02-27T15:58:57Z</time>
      </trkpt>
      <trkpt lat="43.58928" lon="3.06447">
        <ele>280.84</ele>
        <time>2010-02-27T15:59:02Z</time>
      </trkpt>
      <trkpt lat="43.58988" lon="3.06458">
        <ele>285.65</ele>
        <time>2010-02-27T15:59:26Z</time>
      </trkpt>
      <trkpt lat="43.59013" lon="3.06515">
        <ele>289.01</ele>
        <time>2010-02-27T15:59:42Z</time>
      </trkpt>
      <trkpt lat="43.59065" lon="3.06562">
        <ele>291.9</ele>
        <time>2010-02-27T16:00:04Z</time>
      </trkpt>
      <trkpt lat="43.59107" lon="3.06574">
        <ele>295.74</ele>
        <time>2010-02-27T16:00:20Z</time>
      </trkpt>
      <trkpt lat="43.59114" lon="3.06577">
        <ele>295.26</ele>
        <time>2010-02-27T16:00:23Z</time>
      </trkpt>
      <trkpt lat="43.59116" lon="3.0659">
        <ele>295.26</ele>
        <time>2010-02-27T16:00:27Z</time>
      </trkpt>
      <trkpt lat="43.59067" lon="3.06607">
        <ele>295.26</ele>
        <time>2010-02-27T16:00:46Z</time>
      </trkpt>
      <trkpt lat="43.59025" lon="3.06644">
        <ele>295.26</ele>
        <time>2010-02-27T16:01:02Z</time>
      </trkpt>
      <trkpt lat="43.59015" lon="3.06665">
        <ele>295.74</ele>
        <time>2010-02-27T16:01:08Z</time>
      </trkpt>
      <trkpt lat="43.59015" lon="3.06795">
        <ele>297.67</ele>
        <time>2010-02-27T16:01:36Z</time>
      </trkpt>
      <trkpt lat="43.5903" lon="3.06868">
        <ele>297.67</ele>
        <time>2010-02-27T16:01:51Z</time>
      </trkpt>
      <trkpt lat="43.59072" lon="3.06953">
        <ele>297.67</ele>
        <time>2010-02-27T16:02:10Z</time>
      </trkpt>
      <trkpt lat="43.5907" lon="3.06975">
        <ele>298.63</ele>
        <time>2010-02-27T16:02:15Z</time>
      </trkpt>
      <trkpt lat="43.59072" lon="3.07004">
        <ele>297.67</ele>
        <time>2010-02-27T16:02:26Z</time>
      </trkpt>
      <trkpt lat="43.59098" lon="3.07004">
        <ele>302.95</ele>
        <time>2010-02-27T16:02:42Z</time>
      </trkpt>
      <trkpt lat="43.59101" lon="3.06985">
        <ele>307.76</ele>
        <time>2010-02-27T16:02:53Z</time>
      </trkpt>
      <trkpt lat="43.5912" lon="3.06921">
        <ele>316.89</ele>
        <time>2010-02-27T16:03:27Z</time>
      </trkpt>
      <trkpt lat="43.591" lon="3.06869">
        <ele>325.54</ele>
        <time>2010-02-27T16:03:52Z</time>
      </trkpt>
      <trkpt lat="43.59101" lon="3.06825">
        <ele>333.23</ele>
        <time>2010-02-27T16:04:10Z</time>
      </trkpt>
      <trkpt lat="43.59108" lon="3.06789">
        <ele>336.6</ele>
        <time>2010-02-27T16:04:20Z</time>
      </trkpt>
      <trkpt lat="43.59116" lon="3.06744">
        <ele>339.48</ele>
        <time>2010-02-27T16:04:31Z</time>
      </trkpt>
      <trkpt lat="43.59189" lon="3.06712">
        <ele>344.29</ele>
        <time>2010-02-27T16:05:14Z</time>
      </trkpt>
      <trkpt lat="43.59259" lon="3.06647">
        <ele>347.17</ele>
        <time>2010-02-27T16:05:58Z</time>
      </trkpt>
      <trkpt lat="43.59328" lon="3.06638">
        <ele>349.58</ele>
        <time>2010-02-27T16:06:41Z</time>
      </trkpt>
      <trkpt lat="43.59366" lon="3.06665">
        <ele>353.42</ele>
        <time>2010-02-27T16:07:07Z</time>
      </trkpt>
      <trkpt lat="43.59505" lon="3.0673">
        <ele>361.11</ele>
        <time>2010-02-27T16:08:18Z</time>
      </trkpt>
      <trkpt lat="43.59548" lon="3.06774">
        <ele>362.07</ele>
        <time>2010-02-27T16:09:10Z</time>
      </trkpt>
      <trkpt lat="43.5962" lon="3.06764">
        <ele>368.8</ele>
        <time>2010-02-27T16:10:05Z</time>
      </trkpt>
      <trkpt lat="43.59621" lon="3.06764">
        <ele>368.8</ele>
        <time>2010-02-27T16:10:12Z</time>
      </trkpt>
      <trkpt lat="43.59855" lon="3.06588">
        <ele>388.99</ele>
        <time>2010-02-27T16:12:27Z</time>
      </trkpt>
      <trkpt lat="43.59898" lon="3.06501">
        <ele>397.64</ele>
        <time>2010-02-27T16:12:57Z</time>
      </trkpt>
      <trkpt lat="43.59902" lon="3.06453">
        <ele>404.37</ele>
        <time>2010-02-27T16:13:14Z</time>
      </trkpt>
      <trkpt lat="43.59905" lon="3.06342">
        <ele>410.14</ele>
        <time>2010-02-27T16:14:05Z</time>
      </trkpt>
      <trkpt lat="43.59902" lon="3.06431">
        <ele>403.89</ele>
        <time>2010-02-27T16:14:34Z</time>
      </trkpt>
      <trkpt lat="43.59917" lon="3.06469">
        <ele>403.41</ele>
        <time>2010-02-27T16:14:43Z</time>
      </trkpt>
      <trkpt lat="43.59933" lon="3.06478">
        <ele>403.41</ele>
        <time>2010-02-27T16:14:48Z</time>
      </trkpt>
      <trkpt lat="43.59953" lon="3.06477">
        <ele>402.45</ele>
        <time>2010-02-27T16:15:49Z</time>
      </trkpt>
      <trkpt lat="43.59961" lon="3.06478">
        <ele>400.05</ele>
        <time>2010-02-27T16:15:55Z</time>
      </trkpt>
      <trkpt lat="43.5995" lon="3.06496">
        <ele>398.12</ele>
        <time>2010-02-27T16:16:07Z</time>
      </trkpt>
      <trkpt lat="43.59933" lon="3.06524">
        <ele>396.68</ele>
        <time>2010-02-27T16:16:20Z</time>
      </trkpt>
      <trkpt lat="43.59916" lon="3.0655">
        <ele>394.28</ele>
        <time>2010-02-27T16:16:31Z</time>
      </trkpt>
      <trkpt lat="43.59893" lon="3.06593">
        <ele>392.36</ele>
        <time>2010-02-27T16:16:48Z</time>
      </trkpt>
      <trkpt lat="43.59902" lon="3.06605">
        <ele>386.59</ele>
        <time>2010-02-27T16:16:54Z</time>
      </trkpt>
      <trkpt lat="43.59899" lon="3.0664">
        <ele>383.7</ele>
        <time>2010-02-27T16:17:04Z</time>
      </trkpt>
      <trkpt lat="43.5989" lon="3.0666">
        <ele>384.66</ele>
        <time>2010-02-27T16:17:08Z</time>
      </trkpt>
      <trkpt lat="43.59885" lon="3.06685">
        <ele>377.94</ele>
        <time>2010-02-27T16:17:12Z</time>
      </trkpt>
      <trkpt lat="43.59873" lon="3.06749">
        <ele>373.61</ele>
        <time>2010-02-27T16:17:24Z</time>
      </trkpt>
      <trkpt lat="43.5988" lon="3.06768">
        <ele>364</ele>
        <time>2010-02-27T16:17:30Z</time>
      </trkpt>
      <trkpt lat="43.59945" lon="3.06775">
        <ele>339.48</ele>
        <time>2010-02-27T16:17:57Z</time>
      </trkpt>
      <trkpt lat="43.59955" lon="3.06786">
        <ele>332.75</ele>
        <time>2010-02-27T16:18:02Z</time>
      </trkpt>
      <trkpt lat="43.59955" lon="3.06825">
        <ele>327.47</ele>
        <time>2010-02-27T16:18:12Z</time>
      </trkpt>
      <trkpt lat="43.59957" lon="3.06839">
        <ele>322.18</ele>
        <time>2010-02-27T16:18:16Z</time>
      </trkpt>
      <trkpt lat="43.59965" lon="3.06872">
        <ele>313.05</ele>
        <time>2010-02-27T16:18:26Z</time>
      </trkpt>
      <trkpt lat="43.59964" lon="3.06947">
        <ele>304.39</ele>
        <time>2010-02-27T16:18:38Z</time>
      </trkpt>
      <trkpt lat="43.59975" lon="3.06949">
        <ele>301.03</ele>
        <time>2010-02-27T16:18:42Z</time>
      </trkpt>
      <trkpt lat="43.59981" lon="3.06959">
        <ele>299.11</ele>
        <time>2010-02-27T16:18:48Z</time>
      </trkpt>
      <trkpt lat="43.59983" lon="3.06969">
        <ele>293.34</ele>
        <time>2010-02-27T16:18:52Z</time>
      </trkpt>
      <trkpt lat="43.59977" lon="3.06986">
        <ele>295.26</ele>
        <time>2010-02-27T16:18:57Z</time>
      </trkpt>
      <trkpt lat="43.59955" lon="3.07022">
        <ele>292.38</ele>
        <time>2010-02-27T16:19:05Z</time>
      </trkpt>
      <trkpt lat="43.59944" lon="3.07048">
        <ele>287.57</ele>
        <time>2010-02-27T16:19:10Z</time>
      </trkpt>
      <trkpt lat="43.59931" lon="3.07063">
        <ele>289.01</ele>
        <time>2010-02-27T16:19:17Z</time>
      </trkpt>
      <trkpt lat="43.59917" lon="3.07088">
        <ele>284.69</ele>
        <time>2010-02-27T16:19:24Z</time>
      </trkpt>
      <trkpt lat="43.59842" lon="3.07126">
        <ele>284.69</ele>
        <time>2010-02-27T16:19:41Z</time>
      </trkpt>
      <trkpt lat="43.59803" lon="3.07162">
        <ele>287.57</ele>
        <time>2010-02-27T16:19:57Z</time>
      </trkpt>
      <trkpt lat="43.59779" lon="3.07186">
        <ele>288.05</ele>
        <time>2010-02-27T16:20:09Z</time>
      </trkpt>
      <trkpt lat="43.59725" lon="3.07263">
        <ele>286.13</ele>
        <time>2010-02-27T16:20:31Z</time>
      </trkpt>
      <trkpt lat="43.59656" lon="3.07315">
        <ele>286.61</ele>
        <time>2010-02-27T16:20:50Z</time>
      </trkpt>
      <trkpt lat="43.5962" lon="3.07337">
        <ele>286.13</ele>
        <time>2010-02-27T16:21:00Z</time>
      </trkpt>
      <trkpt lat="43.59614" lon="3.07344">
        <ele>285.17</ele>
        <time>2010-02-27T16:21:02Z</time>
      </trkpt>
      <trkpt lat="43.59588" lon="3.0739">
        <ele>288.05</ele>
        <time>2010-02-27T16:21:13Z</time>
      </trkpt>
      <trkpt lat="43.59578" lon="3.0739">
        <ele>291.42</ele>
        <time>2010-02-27T16:21:23Z</time>
      </trkpt>
      <trkpt lat="43.59571" lon="3.07392">
        <ele>291.9</ele>
        <time>2010-02-27T16:22:27Z</time>
      </trkpt>
      <trkpt lat="43.5955" lon="3.07384">
        <ele>289.49</ele>
        <time>2010-02-27T16:28:35Z</time>
      </trkpt>
      <trkpt lat="43.59538" lon="3.07388">
        <ele>284.21</ele>
        <time>2010-02-27T16:28:40Z</time>
      </trkpt>
      <trkpt lat="43.59524" lon="3.07393">
        <ele>282.77</ele>
        <time>2010-02-27T16:28:45Z</time>
      </trkpt>
      <trkpt lat="43.59516" lon="3.07402">
        <ele>277.96</ele>
        <time>2010-02-27T16:28:50Z</time>
      </trkpt>
      <trkpt lat="43.59498" lon="3.07461">
        <ele>255.37</ele>
        <time>2010-02-27T16:29:13Z</time>
      </trkpt>
      <trkpt lat="43.59468" lon="3.07496">
        <ele>247.68</ele>
        <time>2010-02-27T16:29:36Z</time>
      </trkpt>
      <trkpt lat="43.59501" lon="3.07569">
        <ele>248.16</ele>
        <time>2010-02-27T16:31:27Z</time>
      </trkpt>
      <trkpt lat="43.59508" lon="3.07631">
        <ele>249.12</ele>
        <time>2010-02-27T16:31:47Z</time>
      </trkpt>
      <trkpt lat="43.59501" lon="3.07643">
        <ele>251.04</ele>
        <time>2010-02-27T16:31:55Z</time>
      </trkpt>
      <trkpt lat="43.59506" lon="3.0766">
        <ele>250.56</ele>
        <time>2010-02-27T16:32:00Z</time>
      </trkpt>
      <trkpt lat="43.59516" lon="3.07698">
        <ele>249.12</ele>
        <time>2010-02-27T16:32:07Z</time>
      </trkpt>
      <trkpt lat="43.59516" lon="3.07709">
        <ele>247.68</ele>
        <time>2010-02-27T16:32:09Z</time>
      </trkpt>
      <trkpt lat="43.59508" lon="3.07738">
        <ele>247.68</ele>
        <time>2010-02-27T16:32:29Z</time>
      </trkpt>
      <trkpt lat="43.59455" lon="3.07755">
        <ele>254.89</ele>
        <time>2010-02-27T16:33:20Z</time>
      </trkpt>
      <trkpt lat="43.59443" lon="3.07742">
        <ele>254.41</ele>
        <time>2010-02-27T16:34:34Z</time>
      </trkpt>
      <trkpt lat="43.59448" lon="3.07755">
        <ele>254.89</ele>
        <time>2010-02-27T16:35:49Z</time>
      </trkpt>
      <trkpt lat="43.59438" lon="3.07804">
        <ele>246.23</ele>
        <time>2010-02-27T16:37:24Z</time>
      </trkpt>
      <trkpt lat="43.59426" lon="3.07825">
        <ele>239.02</ele>
        <time>2010-02-27T16:37:30Z</time>
      </trkpt>
      <trkpt lat="43.59427" lon="3.07849">
        <ele>233.74</ele>
        <time>2010-02-27T16:37:35Z</time>
      </trkpt>
      <trkpt lat="43.59429" lon="3.07862">
        <ele>230.37</ele>
        <time>2010-02-27T16:37:38Z</time>
      </trkpt>
      <trkpt lat="43.59434" lon="3.07875">
        <ele>223.16</ele>
        <time>2010-02-27T16:37:42Z</time>
      </trkpt>
      <trkpt lat="43.59468" lon="3.07899">
        <ele>214.51</ele>
        <time>2010-02-27T16:37:50Z</time>
      </trkpt>
      <trkpt lat="43.59481" lon="3.08015">
        <ele>204.42</ele>
        <time>2010-02-27T16:39:57Z</time>
      </trkpt>
      <trkpt lat="43.59452" lon="3.08062">
        <ele>198.17</ele>
        <time>2010-02-27T16:40:07Z</time>
      </trkpt>
      <trkpt lat="43.59451" lon="3.08087">
        <ele>197.21</ele>
        <time>2010-02-27T16:40:11Z</time>
      </trkpt>
      <trkpt lat="43.59395" lon="3.08104">
        <ele>192.4</ele>
        <time>2010-02-27T16:40:27Z</time>
      </trkpt>
      <trkpt lat="43.59389" lon="3.08145">
        <ele>189.52</ele>
        <time>2010-02-27T16:40:34Z</time>
      </trkpt>
      <trkpt lat="43.59336" lon="3.08145">
        <ele>188.56</ele>
        <time>2010-02-27T16:40:45Z</time>
      </trkpt>
      <trkpt lat="43.59242" lon="3.08225">
        <ele>185.67</ele>
        <time>2010-02-27T16:41:07Z</time>
      </trkpt>
      <trkpt lat="43.59168" lon="3.0829">
        <ele>186.15</ele>
        <time>2010-02-27T16:41:35Z</time>
      </trkpt>
      <trkpt lat="43.5908" lon="3.08276">
        <ele>183.27</ele>
        <time>2010-02-27T16:41:57Z</time>
      </trkpt>
      <trkpt lat="43.59055" lon="3.08262">
        <ele>182.31</ele>
        <time>2010-02-27T16:42:04Z</time>
      </trkpt>
      <trkpt lat="43.58995" lon="3.08274">
        <ele>182.31</ele>
        <time>2010-02-27T16:42:19Z</time>
      </trkpt>
      <trkpt lat="43.58965" lon="3.08295">
        <ele>182.31</ele>
        <time>2010-02-27T16:42:26Z</time>
      </trkpt>
      <trkpt lat="43.58944" lon="3.08314">
        <ele>181.35</ele>
        <time>2010-02-27T16:42:31Z</time>
      </trkpt>
      <trkpt lat="43.58891" lon="3.08312">
        <ele>181.83</ele>
        <time>2010-02-27T16:42:41Z</time>
      </trkpt>
      <trkpt lat="43.58813" lon="3.08236">
        <ele>187.59</ele>
        <time>2010-02-27T16:43:05Z</time>
      </trkpt>
      <trkpt lat="43.58809" lon="3.08139">
        <ele>192.88</ele>
        <time>2010-02-27T16:43:31Z</time>
      </trkpt>
      <trkpt lat="43.5881" lon="3.08106">
        <ele>192.4</ele>
        <time>2010-02-27T16:43:45Z</time>
      </trkpt>
      <trkpt lat="43.58804" lon="3.08104">
        <ele>193.36</ele>
        <time>2010-02-27T16:43:55Z</time>
      </trkpt>
    </trkseg>
  </trk>
</gpx>